Flight Track Log - Related Links

Times and Time Zones

All times are in EST time to prevent confusion due to time zone crossing. See the N79811 flight status page for this flight to view local times or setup timezone preferences in your user account.

Time Position Orientation Groundspeed Altitude Reporting Facility
EST Latitude Longitude Course Direction KTS MPH feet Rate Location/Type
Thu 09:26:28 PM 34.9542 -81.0636 165° South 72 83 1,700  Level Atlanta Center
Thu 09:27:23 PM 34.9331 -81.0567 165° South 91 105 2,100 517 Climbing Atlanta Center
Thu 09:28:24 PM 34.9117 -81.0422 151° Southeast 90 104 2,700 541 Climbing Atlanta Center
Thu 09:29:25 PM 34.8928 -81.0303 153° Southeast 82 94 3,200 470 Climbing Atlanta Center
Thu 09:30:19 PM 34.8714 -81.0158 151° Southeast 91 105 3,600 446 Climbing Atlanta Center
Thu 09:31:26 PM 34.8442 -81.0042 161° South 91 105 4,100 422 Climbing Atlanta Center
Thu 09:32:27 PM 34.8208 -80.9950 162° South 94 108 4,500 393 Climbing Atlanta Center
Thu 09:33:28 PM 34.7933 -80.9808 157° South 97 112 4,900 310 Climbing Atlanta Center
Thu 09:34:23 PM 34.7703 -80.9692 157° South 102 117 5,100 218 Climbing Atlanta Center
Thu 09:36:00 PM 34.7154 -80.9460 161° South  Level FlightAware
Thu 09:43:00 PM 34.4778 -80.8458 161° South  Level FlightAware
Thu 09:44:00 PM 34.4438 -80.8315 161° South  Level FlightAware
Thu 09:45:00 PM 34.4099 -80.8172 161° South  Level FlightAware
Thu 09:46:00 PM 34.3760 -80.8029 161° South  Level FlightAware
Thu 09:47:00 PM 34.3420 -80.7886 161° South  Level FlightAware
Thu 09:48:00 PM 34.3081 -80.7744 161° South  Level FlightAware
Thu 09:49:00 PM 34.2741 -80.7601 161° South  Level FlightAware
Thu 09:50:00 PM 34.2401 -80.7460 161° South  Level FlightAware
Thu 09:51:00 PM 34.2061 -80.7321 161° South  Level FlightAware
Thu 09:52:00 PM 34.1720 -80.7182 161° South  Level FlightAware
Thu 09:53:00 PM 34.1380 -80.7043 161° South  Level FlightAware
Thu 09:54:00 PM 34.1039 -80.6905 161° South  Level FlightAware
Thu 09:55:00 PM 34.0699 -80.6766 161° South  Level FlightAware
Thu 09:56:00 PM 34.0358 -80.6628 161° South  Level FlightAware
Thu 09:57:00 PM 34.0018 -80.6490 161° South  Level FlightAware
Thu 09:58:00 PM 33.9677 -80.6352 161° South  Level FlightAware
Thu 09:59:00 PM 33.9337 -80.6214 161° South  Level FlightAware
Thu 10:00:00 PM 33.8996 -80.6076 161° South  Level FlightAware
Thu 10:01:00 PM 33.8655 -80.5938 161° South  Level FlightAware
Thu 10:02:00 PM 33.8315 -80.5800 161° South  Level FlightAware
Thu 10:03:00 PM 33.7974 -80.5663 161° South  Level FlightAware
Thu 10:04:00 PM 33.7633 -80.5525 161° South  Level FlightAware
Thu 10:05:00 PM 33.7293 -80.5388 161° South  Level FlightAware
Thu 10:06:00 PM 33.6952 -80.5251 161° South  Level FlightAware
Thu 10:07:00 PM 33.6611 -80.5114 161° South  Level FlightAware
Thu 10:08:00 PM 33.6270 -80.4977 161° South  Level FlightAware
Thu 10:09:00 PM 33.5930 -80.4840 161° South  Level FlightAware
Thu 10:10:00 PM 33.5589 -80.4703 162° South  Level FlightAware
Thu 10:11:00 PM 33.5248 -80.4566 162° South  Level FlightAware
Thu 10:12:00 PM 33.4907 -80.4430 162° South  Level FlightAware
Thu 10:13:00 PM 33.4567 -80.4291 160° South  Level FlightAware
Thu 10:14:00 PM 33.4229 -80.4146 160° South  Level FlightAware
Thu 10:15:00 PM 33.3891 -80.4001 160° South  Level FlightAware
Thu 10:16:00 PM 33.3552 -80.3856 160° South  Level FlightAware
Thu 10:17:00 PM 33.3204 -80.3779 161° South  Level FlightAware
Thu 10:18:00 PM 33.2865 -80.3638 161° South  Level FlightAware
Thu 10:19:00 PM 33.2525 -80.3496 161° South  Level FlightAware
Thu 10:20:00 PM 33.2186 -80.3355 161° South  Level FlightAware
Thu 10:21:00 PM 33.1847 -80.3214 161° South  Level FlightAware
Thu 10:22:00 PM 33.1507 -80.3072 161° South  Level FlightAware
Thu 10:23:00 PM 33.1167 -80.2934 161° South  Level FlightAware
Thu 10:24:00 PM 33.0827 -80.2797 161° South  Level FlightAware
Thu 10:25:00 PM 33.0634 -80.2793 161° South  Level Estimated
Thu 10:26:00 PM 33.0634 -80.2793 161° South  Level Estimated
Thu 10:27:00 PM 33.0634 -80.2793 161° South  Level Estimated
Thu 10:28:00 PM 33.0634 -80.2793 161° South  Level Estimated

Login

Don't have an account? Register now (free) for customized features, flight alerts, and more!